sensor_id;sensor_type;location;lat;lon;timestamp;temperature;humidity
32977;DHT22;47687;50.842;4.450;2022-11-15T00:02:08;12.30;99.90
32977;DHT22;47687;50.842;4.450;2022-11-15T00:04:33;12.40;99.90
32977;DHT22;47687;50.842;4.450;2022-11-15T00:06:59;12.40;99.90
32977;DHT22;47687;50.842;4.450;2022-11-15T00:09:24;12.50;99.90
32977;DHT22;47687;50.842;4.450;2022-11-15T00:11:51;12.60;99.90
32977;DHT22;47687;50.842;4.450;2022-11-15T00:14:17;12.60;99.90
32977;DHT22;47687;50.842;4.450;2022-11-15T00:16:43;12.60;99.90
32977;DHT22;47687;50.842;4.450;2022-11-15T00:19:08;12.60;99.90
32977;DHT22;47687;50.842;4.450;2022-11-15T00:21:34;12.60;99.90
32977;DHT22;47687;50.842;4.450;2022-11-15T00:23:59;12.60;99.90
32977;DHT22;47687;50.842;4.450;2022-11-15T00:26:25;12.50;99.90
32977;DHT22;47687;50.842;4.450;2022-11-15T00:28:52;12.50;99.90
32977;DHT22;47687;50.842;4.450;2022-11-15T00:31:18;12.60;99.90
32977;DHT22;47687;50.842;4.450;2022-11-15T00:33:44;12.50;99.90
32977;DHT22;47687;50.842;4.450;2022-11-15T00:36:11;12.60;99.90
32977;DHT22;47687;50.842;4.450;2022-11-15T00:38:38;12.60;99.90
32977;DHT22;47687;50.842;4.450;2022-11-15T00:41:06;12.70;99.90
32977;DHT22;47687;50.842;4.450;2022-11-15T00:43:32;12.70;99.90
32977;DHT22;47687;50.842;4.450;2022-11-15T00:45:58;12.60;99.90
32977;DHT22;47687;50.842;4.450;2022-11-15T00:48:24;12.70;99.90
32977;DHT22;47687;50.842;4.450;2022-11-15T00:50:50;12.70;99.90
32977;DHT22;47687;50.842;4.450;2022-11-15T00:53:16;12.80;99.90
32977;DHT22;47687;50.842;4.450;2022-11-15T00:55:42;12.90;99.90
32977;DHT22;47687;50.842;4.450;2022-11-15T00:58:08;12.90;99.90
32977;DHT22;47687;50.842;4.450;2022-11-15T01:00:34;12.80;99.90
32977;DHT22;47687;50.842;4.450;2022-11-15T01:03:00;12.70;99.90
32977;DHT22;47687;50.842;4.450;2022-11-15T01:05:26;12.80;99.90
32977;DHT22;47687;50.842;4.450;2022-11-15T01:07:55;12.80;99.90
32977;DHT22;47687;50.842;4.450;2022-11-15T01:10:22;12.90;99.90
32977;DHT22;47687;50.842;4.450;2022-11-15T01:12:48;12.90;99.90
32977;DHT22;47687;50.842;4.450;2022-11-15T01:15:14;12.90;99.90
32977;DHT22;47687;50.842;4.450;2022-11-15T01:17:40;12.90;99.90
32977;DHT22;47687;50.842;4.450;2022-11-15T01:20:06;12.90;99.90
32977;DHT22;47687;50.842;4.450;2022-11-15T01:22:32;13.00;99.90
32977;DHT22;47687;50.842;4.450;2022-11-15T01:24:57;13.10;99.90
32977;DHT22;47687;50.842;4.450;2022-11-15T01:27:23;13.00;99.90
32977;DHT22;47687;50.842;4.450;2022-11-15T01:29:48;13.00;99.90
32977;DHT22;47687;50.842;4.450;2022-11-15T01:32:14;13.10;99.90
32977;DHT22;47687;50.842;4.450;2022-11-15T01:34:39;13.10;99.90
32977;DHT22;47687;50.842;4.450;2022-11-15T01:37:05;13.00;99.90
32977;DHT22;47687;50.842;4.450;2022-11-15T01:39:31;13.00;99.90
32977;DHT22;47687;50.842;4.450;2022-11-15T01:41:56;12.90;99.90
32977;DHT22;47687;50.842;4.450;2022-11-15T01:46:58;12.80;99.90
32977;DHT22;47687;50.842;4.450;2022-11-15T01:49:24;12.80;99.90
32977;DHT22;47687;50.842;4.450;2022-11-15T01:51:51;12.80;99.90
32977;DHT22;47687;50.842;4.450;2022-11-15T01:54:20;12.80;99.90
32977;DHT22;47687;50.842;4.450;2022-11-15T01:56:53;12.80;99.90
32977;DHT22;47687;50.842;4.450;2022-11-15T01:59:19;12.80;99.90
32977;DHT22;47687;50.842;4.450;2022-11-15T02:01:46;12.90;99.90
32977;DHT22;47687;50.842;4.450;2022-11-15T02:04:17;12.90;99.90
32977;DHT22;47687;50.842;4.450;2022-11-15T02:06:44;12.90;99.90
32977;DHT22;47687;50.842;4.450;2022-11-15T02:09:12;12.80;99.90
32977;DHT22;47687;50.842;4.450;2022-11-15T02:11:38;13.00;99.90
32977;DHT22;47687;50.842;4.450;2022-11-15T02:14:05;13.00;99.90
32977;DHT22;47687;50.842;4.450;2022-11-15T02:28:00;13.00;99.90
32977;DHT22;47687;50.842;4.450;2022-11-15T02:30:47;13.00;99.90
32977;DHT22;47687;50.842;4.450;2022-11-15T02:33:35;13.00;99.90
32977;DHT22;47687;50.842;4.450;2022-11-15T02:36:14;13.00;99.90
32977;DHT22;47687;50.842;4.450;2022-11-15T02:38:48;13.00;99.90
32977;DHT22;47687;50.842;4.450;2022-11-15T02:41:20;12.90;99.90
32977;DHT22;47687;50.842;4.450;2022-11-15T02:46:36;12.90;99.90
32977;DHT22;47687;50.842;4.450;2022-11-15T02:49:26;12.90;99.90
32977;DHT22;47687;50.842;4.450;2022-11-15T02:51:55;12.90;99.90
32977;DHT22;47687;50.842;4.450;2022-11-15T02:54:23;13.00;99.90
32977;DHT22;47687;50.842;4.450;2022-11-15T02:56:51;12.90;99.90
32977;DHT22;47687;50.842;4.450;2022-11-15T02:59:28;12.80;99.90
32977;DHT22;47687;50.842;4.450;2022-11-15T03:05:15;12.90;99.90
32977;DHT22;47687;50.842;4.450;2022-11-15T03:07:30;12.80;99.90
32977;DHT22;47687;50.842;4.450;2022-11-15T03:10:20;12.80;99.90
32977;DHT22;47687;50.842;4.450;2022-11-15T03:12:58;12.90;99.90
32977;DHT22;47687;50.842;4.450;2022-11-15T03:15:37;12.80;99.90
32977;DHT22;47687;50.842;4.450;2022-11-15T03:18:30;12.90;99.90
32977;DHT22;47687;50.842;4.450;2022-11-15T03:20:58;12.90;99.90
32977;DHT22;47687;50.842;4.450;2022-11-15T03:23:24;12.80;99.90
32977;DHT22;47687;50.842;4.450;2022-11-15T03:25:51;12.90;99.90
32977;DHT22;47687;50.842;4.450;2022-11-15T03:28:32;12.80;99.90
32977;DHT22;47687;50.842;4.450;2022-11-15T03:31:01;12.80;99.90
32977;DHT22;47687;50.842;4.450;2022-11-15T03:33:48;12.80;99.90
32977;DHT22;47687;50.842;4.450;2022-11-15T03:36:15;12.90;99.90
32977;DHT22;47687;50.842;4.450;2022-11-15T03:38:41;12.80;99.90
32977;DHT22;47687;50.842;4.450;2022-11-15T03:41:22;12.80;99.90
32977;DHT22;47687;50.842;4.450;2022-11-15T03:49:25;12.70;99.90
32977;DHT22;47687;50.842;4.450;2022-11-15T03:51:52;12.70;99.90
32977;DHT22;47687;50.842;4.450;2022-11-15T03:54:18;12.70;99.90
32977;DHT22;47687;50.842;4.450;2022-11-15T03:56:44;12.70;99.90
32977;DHT22;47687;50.842;4.450;2022-11-15T03:59:09;12.70;99.90
32977;DHT22;47687;50.842;4.450;2022-11-15T04:01:35;12.60;99.90
32977;DHT22;47687;50.842;4.450;2022-11-15T04:04:00;12.60;99.90
32977;DHT22;47687;50.842;4.450;2022-11-15T04:06:26;12.50;99.90
32977;DHT22;47687;50.842;4.450;2022-11-15T04:08:51;12.50;99.90
32977;DHT22;47687;50.842;4.450;2022-11-15T04:11:17;12.50;99.90
32977;DHT22;47687;50.842;4.450;2022-11-15T04:13:42;12.50;99.90
32977;DHT22;47687;50.842;4.450;2022-11-15T04:16:08;12.50;99.90
32977;DHT22;47687;50.842;4.450;2022-11-15T04:18:33;12.50;99.90
32977;DHT22;47687;50.842;4.450;2022-11-15T04:20:59;12.50;99.90
32977;DHT22;47687;50.842;4.450;2022-11-15T04:23:43;12.50;99.90
32977;DHT22;47687;50.842;4.450;2022-11-15T04:26:27;12.40;99.90
32977;DHT22;47687;50.842;4.450;2022-11-15T04:28:53;12.50;99.90
32977;DHT22;47687;50.842;4.450;2022-11-15T04:31:37;12.40;99.90
32977;DHT22;47687;50.842;4.450;2022-11-15T04:34:02;12.40;99.90
32977;DHT22;47687;50.842;4.450;2022-11-15T04:36:28;12.40;99.90
32977;DHT22;47687;50.842;4.450;2022-11-15T04:39:12;12.40;99.90
32977;DHT22;47687;50.842;4.450;2022-11-15T04:41:37;12.40;99.90
32977;DHT22;47687;50.842;4.450;2022-11-15T04:44:03;12.40;99.90
32977;DHT22;47687;50.842;4.450;2022-11-15T04:46:28;12.30;99.90
32977;DHT22;47687;50.842;4.450;2022-11-15T04:48:54;12.10;99.90
32977;DHT22;47687;50.842;4.450;2022-11-15T04:51:20;12.20;99.90
32977;DHT22;47687;50.842;4.450;2022-11-15T04:53:45;12.00;99.90
32977;DHT22;47687;50.842;4.450;2022-11-15T04:56:11;11.70;99.90
32977;DHT22;47687;50.842;4.450;2022-11-15T04:58:37;11.70;99.90
32977;DHT22;47687;50.842;4.450;2022-11-15T05:01:13;11.60;99.90
32977;DHT22;47687;50.842;4.450;2022-11-15T05:03:40;11.60;99.90
32977;DHT22;47687;50.842;4.450;2022-11-15T05:06:24;11.60;99.90
32977;DHT22;47687;50.842;4.450;2022-11-15T05:08:50;11.60;99.90
32977;DHT22;47687;50.842;4.450;2022-11-15T05:11:16;11.60;99.90
32977;DHT22;47687;50.842;4.450;2022-11-15T05:13:41;11.50;99.90
32977;DHT22;47687;50.842;4.450;2022-11-15T05:16:07;11.60;99.90
32977;DHT22;47687;50.842;4.450;2022-11-15T05:18:33;11.50;99.90
32977;DHT22;47687;50.842;4.450;2022-11-15T05:21:11;11.50;99.90
32977;DHT22;47687;50.842;4.450;2022-11-15T05:23:37;11.30;99.90
32977;DHT22;47687;50.842;4.450;2022-11-15T05:26:04;11.30;99.90
32977;DHT22;47687;50.842;4.450;2022-11-15T05:28:31;11.10;99.90
32977;DHT22;47687;50.842;4.450;2022-11-15T05:31:07;11.00;99.90
32977;DHT22;47687;50.842;4.450;2022-11-15T05:33:34;10.90;99.90
32977;DHT22;47687;50.842;4.450;2022-11-15T05:38:28;10.80;99.90
32977;DHT22;47687;50.842;4.450;2022-11-15T05:40:54;10.80;99.90
32977;DHT22;47687;50.842;4.450;2022-11-15T05:43:20;10.90;99.90
32977;DHT22;47687;50.842;4.450;2022-11-15T05:45:46;10.80;99.90
32977;DHT22;47687;50.842;4.450;2022-11-15T05:48:12;10.80;99.90
32977;DHT22;47687;50.842;4.450;2022-11-15T05:50:42;10.70;99.90
32977;DHT22;47687;50.842;4.450;2022-11-15T05:53:10;10.60;99.90
32977;DHT22;47687;50.842;4.450;2022-11-15T05:55:38;10.60;99.90
32977;DHT22;47687;50.842;4.450;2022-11-15T05:58:04;10.50;99.90
32977;DHT22;47687;50.842;4.450;2022-11-15T06:00:29;10.40;99.90
32977;DHT22;47687;50.842;4.450;2022-11-15T06:02:55;10.30;99.90
32977;DHT22;47687;50.842;4.450;2022-11-15T06:05:21;10.40;99.90
32977;DHT22;47687;50.842;4.450;2022-11-15T06:07:46;10.40;99.90
32977;DHT22;47687;50.842;4.450;2022-11-15T06:10:12;10.40;99.90
32977;DHT22;47687;50.842;4.450;2022-11-15T06:12:37;10.50;99.90
32977;DHT22;47687;50.842;4.450;2022-11-15T06:15:03;10.40;99.90
32977;DHT22;47687;50.842;4.450;2022-11-15T06:17:29;10.20;99.90
32977;DHT22;47687;50.842;4.450;2022-11-15T06:19:54;10.10;99.90
32977;DHT22;47687;50.842;4.450;2022-11-15T06:22:20;10.10;99.90
32977;DHT22;47687;50.842;4.450;2022-11-15T06:24:46;10.10;99.90
32977;DHT22;47687;50.842;4.450;2022-11-15T06:27:12;9.90;99.90
32977;DHT22;47687;50.842;4.450;2022-11-15T06:29:37;9.80;99.90
32977;DHT22;47687;50.842;4.450;2022-11-15T06:32:03;9.70;99.90
32977;DHT22;47687;50.842;4.450;2022-11-15T06:34:29;9.60;99.90
32977;DHT22;47687;50.842;4.450;2022-11-15T06:36:54;9.60;99.90
32977;DHT22;47687;50.842;4.450;2022-11-15T06:39:20;9.50;99.90
32977;DHT22;47687;50.842;4.450;2022-11-15T06:41:45;9.50;99.90
32977;DHT22;47687;50.842;4.450;2022-11-15T06:44:11;9.40;99.90
32977;DHT22;47687;50.842;4.450;2022-11-15T06:46:37;9.30;99.90
32977;DHT22;47687;50.842;4.450;2022-11-15T06:49:02;9.30;99.90
32977;DHT22;47687;50.842;4.450;2022-11-15T06:51:28;9.30;99.90
32977;DHT22;47687;50.842;4.450;2022-11-15T06:53:54;9.30;99.90
32977;DHT22;47687;50.842;4.450;2022-11-15T06:56:19;9.30;99.90
32977;DHT22;47687;50.842;4.450;2022-11-15T06:58:45;9.30;99.90
32977;DHT22;47687;50.842;4.450;2022-11-15T07:01:12;9.90;99.90
32977;DHT22;47687;50.842;4.450;2022-11-15T07:03:39;9.20;99.90
32977;DHT22;47687;50.842;4.450;2022-11-15T07:06:06;9.10;99.90
32977;DHT22;47687;50.842;4.450;2022-11-15T07:08:32;9.20;99.90
32977;DHT22;47687;50.842;4.450;2022-11-15T07:10:59;9.20;99.90
32977;DHT22;47687;50.842;4.450;2022-11-15T07:13:26;9.20;99.90
32977;DHT22;47687;50.842;4.450;2022-11-15T07:15:52;9.20;99.90
32977;DHT22;47687;50.842;4.450;2022-11-15T07:18:18;9.30;99.90
32977;DHT22;47687;50.842;4.450;2022-11-15T07:20:43;9.30;99.90
32977;DHT22;47687;50.842;4.450;2022-11-15T07:23:09;9.20;99.90
32977;DHT22;47687;50.842;4.450;2022-11-15T07:25:35;9.20;99.90
32977;DHT22;47687;50.842;4.450;2022-11-15T07:28:01;9.20;99.90
32977;DHT22;47687;50.842;4.450;2022-11-15T07:30:27;9.30;99.90
32977;DHT22;47687;50.842;4.450;2022-11-15T07:32:57;9.30;99.90
32977;DHT22;47687;50.842;4.450;2022-11-15T07:35:23;9.30;99.90
32977;DHT22;47687;50.842;4.450;2022-11-15T07:37:59;9.60;99.90
32977;DHT22;47687;50.842;4.450;2022-11-15T07:40:27;9.40;99.90
32977;DHT22;47687;50.842;4.450;2022-11-15T07:43:02;9.40;99.90
32977;DHT22;47687;50.842;4.450;2022-11-15T07:45:29;9.50;99.90
32977;DHT22;47687;50.842;4.450;2022-11-15T07:47:55;9.70;99.90
32977;DHT22;47687;50.842;4.450;2022-11-15T07:50:22;9.50;99.90
32977;DHT22;47687;50.842;4.450;2022-11-15T07:52:53;9.50;99.90
32977;DHT22;47687;50.842;4.450;2022-11-15T07:55:19;9.60;99.90
32977;DHT22;47687;50.842;4.450;2022-11-15T07:57:45;9.70;99.90
32977;DHT22;47687;50.842;4.450;2022-11-15T08:00:11;9.60;99.90
32977;DHT22;47687;50.842;4.450;2022-11-15T08:02:36;9.70;99.90
32977;DHT22;47687;50.842;4.450;2022-11-15T08:05:02;9.70;99.90
32977;DHT22;47687;50.842;4.450;2022-11-15T08:07:29;9.70;99.90
32977;DHT22;47687;50.842;4.450;2022-11-15T08:09:55;10.00;99.90
32977;DHT22;47687;50.842;4.450;2022-11-15T08:12:22;9.70;99.90
32977;DHT22;47687;50.842;4.450;2022-11-15T08:14:47;9.70;99.90
32977;DHT22;47687;50.842;4.450;2022-11-15T08:17:13;9.70;99.90
32977;DHT22;47687;50.842;4.450;2022-11-15T08:19:39;9.80;99.90
32977;DHT22;47687;50.842;4.450;2022-11-15T08:22:04;10.00;99.90
32977;DHT22;47687;50.842;4.450;2022-11-15T08:24:30;10.00;99.90
32977;DHT22;47687;50.842;4.450;2022-11-15T08:26:55;10.00;99.90
32977;DHT22;47687;50.842;4.450;2022-11-15T08:29:21;10.00;99.90
32977;DHT22;47687;50.842;4.450;2022-11-15T08:31:47;9.90;99.90
32977;DHT22;47687;50.842;4.450;2022-11-15T08:34:12;10.00;99.90
32977;DHT22;47687;50.842;4.450;2022-11-15T08:36:38;10.00;99.90
32977;DHT22;47687;50.842;4.450;2022-11-15T08:39:03;10.00;99.90
32977;DHT22;47687;50.842;4.450;2022-11-15T08:41:32;10.10;99.90
32977;DHT22;47687;50.842;4.450;2022-11-15T08:43:57;10.20;99.90
32977;DHT22;47687;50.842;4.450;2022-11-15T08:46:23;10.30;99.90
32977;DHT22;47687;50.842;4.450;2022-11-15T08:48:49;10.60;99.90
32977;DHT22;47687;50.842;4.450;2022-11-15T08:51:15;10.50;99.90
32977;DHT22;47687;50.842;4.450;2022-11-15T08:53:41;10.50;99.90
32977;DHT22;47687;50.842;4.450;2022-11-15T08:56:08;10.60;99.90
32977;DHT22;47687;50.842;4.450;2022-11-15T08:58:35;10.50;99.90
32977;DHT22;47687;50.842;4.450;2022-11-15T09:01:00;10.60;99.90
32977;DHT22;47687;50.842;4.450;2022-11-15T09:03:26;10.60;99.90
32977;DHT22;47687;50.842;4.450;2022-11-15T09:05:56;10.70;99.90
32977;DHT22;47687;50.842;4.450;2022-11-15T09:08:22;10.70;99.90
32977;DHT22;47687;50.842;4.450;2022-11-15T09:10:47;10.90;99.90
32977;DHT22;47687;50.842;4.450;2022-11-15T09:13:13;11.00;99.90
32977;DHT22;47687;50.842;4.450;2022-11-15T09:15:39;11.10;99.90
32977;DHT22;47687;50.842;4.450;2022-11-15T09:18:05;11.10;99.90
32977;DHT22;47687;50.842;4.450;2022-11-15T09:20:30;11.30;99.90
32977;DHT22;47687;50.842;4.450;2022-11-15T09:23:03;11.20;99.90
32977;DHT22;47687;50.842;4.450;2022-11-15T09:25:29;11.30;99.90
32977;DHT22;47687;50.842;4.450;2022-11-15T09:27:55;11.40;99.90
32977;DHT22;47687;50.842;4.450;2022-11-15T09:30:22;11.40;99.90
32977;DHT22;47687;50.842;4.450;2022-11-15T09:32:48;11.50;99.90
32977;DHT22;47687;50.842;4.450;2022-11-15T09:35:13;11.50;99.90
32977;DHT22;47687;50.842;4.450;2022-11-15T09:37:39;11.40;99.90
32977;DHT22;47687;50.842;4.450;2022-11-15T09:40:05;11.50;99.90
32977;DHT22;47687;50.842;4.450;2022-11-15T09:45:12;11.70;99.90
32977;DHT22;47687;50.842;4.450;2022-11-15T09:50:50;11.80;99.90
32977;DHT22;47687;50.842;4.450;2022-11-15T09:53:55;11.80;99.90
32977;DHT22;47687;50.842;4.450;2022-11-15T09:56:28;11.90;99.90
32977;DHT22;47687;50.842;4.450;2022-11-15T10:04:37;12.10;99.90
32977;DHT22;47687;50.842;4.450;2022-11-15T10:07:27;12.10;99.90
32977;DHT22;47687;50.842;4.450;2022-11-15T10:10:27;12.10;99.90
32977;DHT22;47687;50.842;4.450;2022-11-15T10:12:50;12.10;99.90
32977;DHT22;47687;50.842;4.450;2022-11-15T10:15:18;12.20;99.90
32977;DHT22;47687;50.842;4.450;2022-11-15T10:20:25;12.30;99.90
32977;DHT22;47687;50.842;4.450;2022-11-15T10:22:55;12.30;99.90
32977;DHT22;47687;50.842;4.450;2022-11-15T10:25:27;12.30;99.90
32977;DHT22;47687;50.842;4.450;2022-11-15T10:28:15;12.30;99.90
32977;DHT22;47687;50.842;4.450;2022-11-15T10:30:47;12.30;99.90
32977;DHT22;47687;50.842;4.450;2022-11-15T10:33:33;12.50;99.90
32977;DHT22;47687;50.842;4.450;2022-11-15T10:41:21;12.90;99.90
32977;DHT22;47687;50.842;4.450;2022-11-15T10:44:24;13.00;99.90
32977;DHT22;47687;50.842;4.450;2022-11-15T10:49:29;12.80;99.90
32977;DHT22;47687;50.842;4.450;2022-11-15T10:52:00;12.90;99.90
32977;DHT22;47687;50.842;4.450;2022-11-15T10:54:37;12.90;99.90
32977;DHT22;47687;50.842;4.450;2022-11-15T10:57:28;12.90;99.90
32977;DHT22;47687;50.842;4.450;2022-11-15T11:00:26;13.30;99.90
32977;DHT22;47687;50.842;4.450;2022-11-15T11:02:57;13.60;99.90
32977;DHT22;47687;50.842;4.450;2022-11-15T11:08:03;13.70;99.90
32977;DHT22;47687;50.842;4.450;2022-11-15T11:10:30;13.90;99.90
32977;DHT22;47687;50.842;4.450;2022-11-15T11:12:55;14.00;99.90
32977;DHT22;47687;50.842;4.450;2022-11-15T11:15:24;14.20;99.90
32977;DHT22;47687;50.842;4.450;2022-11-15T11:20:40;14.30;99.90
32977;DHT22;47687;50.842;4.450;2022-11-15T11:26:27;14.50;99.90
32977;DHT22;47687;50.842;4.450;2022-11-15T11:37:21;14.80;99.90
32977;DHT22;47687;50.842;4.450;2022-11-15T11:43:02;14.70;99.90
32977;DHT22;47687;50.842;4.450;2022-11-15T11:48:18;15.10;99.90
32977;DHT22;47687;50.842;4.450;2022-11-15T11:50:45;15.10;99.90
32977;DHT22;47687;50.842;4.450;2022-11-15T11:53:31;15.10;99.90
32977;DHT22;47687;50.842;4.450;2022-11-15T11:56:03;15.00;99.90
32977;DHT22;47687;50.842;4.450;2022-11-15T11:58:43;14.90;99.90
32977;DHT22;47687;50.842;4.450;2022-11-15T12:03:57;14.70;99.90
32977;DHT22;47687;50.842;4.450;2022-11-15T12:06:51;14.70;99.90
32977;DHT22;47687;50.842;4.450;2022-11-15T12:09:35;14.70;99.90
32977;DHT22;47687;50.842;4.450;2022-11-15T12:12:35;14.80;99.90
32977;DHT22;47687;50.842;4.450;2022-11-15T12:15:12;14.70;99.90
32977;DHT22;47687;50.842;4.450;2022-11-15T12:17:40;14.70;99.90
32977;DHT22;47687;50.842;4.450;2022-11-15T12:20:22;14.90;99.90
32977;DHT22;47687;50.842;4.450;2022-11-15T12:23:15;14.80;99.90
32977;DHT22;47687;50.842;4.450;2022-11-15T12:33:47;14.90;99.90
32977;DHT22;47687;50.842;4.450;2022-11-15T12:39:01;14.50;99.90
32977;DHT22;47687;50.842;4.450;2022-11-15T12:47:00;14.60;99.90
32977;DHT22;47687;50.842;4.450;2022-11-15T12:59:52;14.80;99.90
32977;DHT22;47687;50.842;4.450;2022-11-15T13:04:47;15.10;99.90
32977;DHT22;47687;50.842;4.450;2022-11-15T13:10:07;15.20;99.90
32977;DHT22;47687;50.842;4.450;2022-11-15T13:22:48;15.50;99.90
32977;DHT22;47687;50.842;4.450;2022-11-15T13:28:09;15.40;99.90
32977;DHT22;47687;50.842;4.450;2022-11-15T13:30:36;15.20;99.90
32977;DHT22;47687;50.842;4.450;2022-11-15T13:33:13;15.10;99.90
32977;DHT22;47687;50.842;4.450;2022-11-15T13:35:41;15.00;99.90
32977;DHT22;47687;50.842;4.450;2022-11-15T13:38:27;15.00;99.90
32977;DHT22;47687;50.842;4.450;2022-11-15T13:40:53;14.90;99.90
32977;DHT22;47687;50.842;4.450;2022-11-15T13:46:11;15.00;99.90
32977;DHT22;47687;50.842;4.450;2022-11-15T13:48:37;14.90;99.90
32977;DHT22;47687;50.842;4.450;2022-11-15T13:53:41;14.90;99.90
32977;DHT22;47687;50.842;4.450;2022-11-15T13:56:07;14.80;99.90
32977;DHT22;47687;50.842;4.450;2022-11-15T13:58:37;14.80;99.90
32977;DHT22;47687;50.842;4.450;2022-11-15T14:01:05;14.50;99.90
32977;DHT22;47687;50.842;4.450;2022-11-15T14:03:41;14.50;99.90
32977;DHT22;47687;50.842;4.450;2022-11-15T14:06:14;14.70;99.90
32977;DHT22;47687;50.842;4.450;2022-11-15T14:08:42;14.80;99.90
32977;DHT22;47687;50.842;4.450;2022-11-15T14:11:22;14.70;99.90
32977;DHT22;47687;50.842;4.450;2022-11-15T14:16:43;14.70;99.90
32977;DHT22;47687;50.842;4.450;2022-11-15T14:22:12;14.70;99.90
32977;DHT22;47687;50.842;4.450;2022-11-15T14:24:39;14.60;99.90
32977;DHT22;47687;50.842;4.450;2022-11-15T14:27:21;14.70;99.90
32977;DHT22;47687;50.842;4.450;2022-11-15T14:29:47;14.50;99.90
32977;DHT22;47687;50.842;4.450;2022-11-15T14:32:22;14.40;99.90
32977;DHT22;47687;50.842;4.450;2022-11-15T14:34:53;14.40;99.90
32977;DHT22;47687;50.842;4.450;2022-11-15T14:37:31;14.40;99.90
32977;DHT22;47687;50.842;4.450;2022-11-15T14:39:59;14.50;99.90
32977;DHT22;47687;50.842;4.450;2022-11-15T14:42:25;14.30;99.90
32977;DHT22;47687;50.842;4.450;2022-11-15T14:44:51;14.20;99.90
32977;DHT22;47687;50.842;4.450;2022-11-15T14:47:17;14.20;99.90
32977;DHT22;47687;50.842;4.450;2022-11-15T14:49:43;14.20;99.90
32977;DHT22;47687;50.842;4.450;2022-11-15T14:52:27;14.30;99.90
32977;DHT22;47687;50.842;4.450;2022-11-15T14:54:54;14.20;99.90
32977;DHT22;47687;50.842;4.450;2022-11-15T14:57:20;14.10;99.90
32977;DHT22;47687;50.842;4.450;2022-11-15T14:59:46;14.20;99.90
32977;DHT22;47687;50.842;4.450;2022-11-15T15:02:21;14.20;99.90
32977;DHT22;47687;50.842;4.450;2022-11-15T15:04:47;14.20;99.90
32977;DHT22;47687;50.842;4.450;2022-11-15T15:07:13;14.00;99.90
32977;DHT22;47687;50.842;4.450;2022-11-15T15:09:39;14.00;99.90
32977;DHT22;47687;50.842;4.450;2022-11-15T15:12:14;14.10;99.90
32977;DHT22;47687;50.842;4.450;2022-11-15T15:14:40;14.10;99.90
32977;DHT22;47687;50.842;4.450;2022-11-15T15:17:06;14.00;99.90
32977;DHT22;47687;50.842;4.450;2022-11-15T15:19:31;13.90;99.90
32977;DHT22;47687;50.842;4.450;2022-11-15T15:21:57;13.90;99.90
32977;DHT22;47687;50.842;4.450;2022-11-15T15:24:23;13.70;99.90
32977;DHT22;47687;50.842;4.450;2022-11-15T15:26:48;13.70;99.90
32977;DHT22;47687;50.842;4.450;2022-11-15T15:29:14;13.70;99.90
32977;DHT22;47687;50.842;4.450;2022-11-15T15:31:39;13.70;99.90
32977;DHT22;47687;50.842;4.450;2022-11-15T15:34:05;13.60;99.90
32977;DHT22;47687;50.842;4.450;2022-11-15T15:36:31;13.50;99.90
32977;DHT22;47687;50.842;4.450;2022-11-15T15:38:56;13.50;99.90
32977;DHT22;47687;50.842;4.450;2022-11-15T15:41:23;13.40;99.90
32977;DHT22;47687;50.842;4.450;2022-11-15T15:43:48;13.40;99.90
32977;DHT22;47687;50.842;4.450;2022-11-15T15:46:16;13.40;99.90
32977;DHT22;47687;50.842;4.450;2022-11-15T15:48:42;13.30;99.90
32977;DHT22;47687;50.842;4.450;2022-11-15T15:51:08;13.20;99.90
32977;DHT22;47687;50.842;4.450;2022-11-15T15:53:34;13.00;99.90
32977;DHT22;47687;50.842;4.450;2022-11-15T15:55:59;12.60;99.90
32977;DHT22;47687;50.842;4.450;2022-11-15T15:58:25;12.90;99.90
32977;DHT22;47687;50.842;4.450;2022-11-15T16:00:51;13.00;99.90
32977;DHT22;47687;50.842;4.450;2022-11-15T16:03:17;13.00;99.90
32977;DHT22;47687;50.842;4.450;2022-11-15T16:05:42;13.00;99.90
32977;DHT22;47687;50.842;4.450;2022-11-15T16:08:19;13.00;99.90
32977;DHT22;47687;50.842;4.450;2022-11-15T16:10:45;12.90;99.90
32977;DHT22;47687;50.842;4.450;2022-11-15T16:13:11;12.80;99.90
32977;DHT22;47687;50.842;4.450;2022-11-15T16:15:37;12.80;99.90
32977;DHT22;47687;50.842;4.450;2022-11-15T16:18:03;12.60;99.90
32977;DHT22;47687;50.842;4.450;2022-11-15T16:23:01;12.80;99.90
32977;DHT22;47687;50.842;4.450;2022-11-15T16:25:27;12.70;99.90
32977;DHT22;47687;50.842;4.450;2022-11-15T16:27:53;12.70;99.90
32977;DHT22;47687;50.842;4.450;2022-11-15T16:30:21;12.60;99.90
32977;DHT22;47687;50.842;4.450;2022-11-15T16:32:47;12.60;99.90
32977;DHT22;47687;50.842;4.450;2022-11-15T16:35:14;12.50;99.90
32977;DHT22;47687;50.842;4.450;2022-11-15T16:37:40;12.50;99.90
32977;DHT22;47687;50.842;4.450;2022-11-15T16:40:28;12.40;99.90
32977;DHT22;47687;50.842;4.450;2022-11-15T16:42:58;12.50;99.90
32977;DHT22;47687;50.842;4.450;2022-11-15T16:45:26;12.60;99.90
32977;DHT22;47687;50.842;4.450;2022-11-15T16:47:54;12.60;99.90
32977;DHT22;47687;50.842;4.450;2022-11-15T16:50:29;12.60;99.90
32977;DHT22;47687;50.842;4.450;2022-11-15T16:52:56;12.60;99.90
32977;DHT22;47687;50.842;4.450;2022-11-15T16:55:25;12.90;99.90
32977;DHT22;47687;50.842;4.450;2022-11-15T16:57:52;12.80;99.90
32977;DHT22;47687;50.842;4.450;2022-11-15T17:00:19;12.90;99.90
32977;DHT22;47687;50.842;4.450;2022-11-15T17:02:46;12.70;99.90
32977;DHT22;47687;50.842;4.450;2022-11-15T17:05:12;12.70;99.90
32977;DHT22;47687;50.842;4.450;2022-11-15T17:07:39;12.80;99.90
32977;DHT22;47687;50.842;4.450;2022-11-15T17:10:06;12.70;99.90
32977;DHT22;47687;50.842;4.450;2022-11-15T17:12:33;12.80;99.90
32977;DHT22;47687;50.842;4.450;2022-11-15T17:14:58;12.70;99.90
32977;DHT22;47687;50.842;4.450;2022-11-15T17:17:24;12.90;99.90
32977;DHT22;47687;50.842;4.450;2022-11-15T17:19:51;12.80;99.90
32977;DHT22;47687;50.842;4.450;2022-11-15T17:22:17;12.80;99.90
32977;DHT22;47687;50.842;4.450;2022-11-15T17:24:43;12.80;99.90
32977;DHT22;47687;50.842;4.450;2022-11-15T17:27:08;12.80;99.90
32977;DHT22;47687;50.842;4.450;2022-11-15T17:29:34;12.80;99.90
32977;DHT22;47687;50.842;4.450;2022-11-15T17:31:59;12.80;99.90
32977;DHT22;47687;50.842;4.450;2022-11-15T17:34:25;12.70;99.90
32977;DHT22;47687;50.842;4.450;2022-11-15T17:36:50;12.70;99.90
32977;DHT22;47687;50.842;4.450;2022-11-15T17:39:16;12.70;99.90
32977;DHT22;47687;50.842;4.450;2022-11-15T17:41:43;12.80;99.90
32977;DHT22;47687;50.842;4.450;2022-11-15T17:44:09;12.80;99.90
32977;DHT22;47687;50.842;4.450;2022-11-15T17:46:35;12.80;99.90
32977;DHT22;47687;50.842;4.450;2022-11-15T17:49:00;12.70;99.90
32977;DHT22;47687;50.842;4.450;2022-11-15T17:51:26;12.80;99.90
32977;DHT22;47687;50.842;4.450;2022-11-15T17:53:52;12.80;99.90
32977;DHT22;47687;50.842;4.450;2022-11-15T17:56:19;12.90;99.90
32977;DHT22;47687;50.842;4.450;2022-11-15T17:58:56;12.90;99.90